createdAt,value
2023-01-17T00:04:10.618Z,91.78
2023-01-17T00:09:35.189Z,91.78
2023-01-17T00:14:41.651Z,91.53
2023-01-17T00:20:12.929Z,91.78
2023-01-17T00:25:39.316Z,91.71
2023-01-17T00:30:45.922Z,91.74
2023-01-17T00:35:53.623Z,91.79
2023-01-17T00:41:04.377Z,92.01
2023-01-17T00:46:28.405Z,92.07
2023-01-17T00:51:54.344Z,92.17
2023-01-17T00:57:18.690Z,92.30
2023-01-17T01:02:43.822Z,92.63
2023-01-17T01:08:09.332Z,92.67
2023-01-17T01:13:33.152Z,92.94
2023-01-17T01:18:56.658Z,92.71
2023-01-17T01:24:21.451Z,92.95
2023-01-17T01:29:45.215Z,93.34
2023-01-17T01:34:52.483Z,92.95
2023-01-17T01:40:00.881Z,93.01
2023-01-17T01:45:20.812Z,92.71
2023-01-17T01:50:28.755Z,93.04
2023-01-17T01:55:41.515Z,93.19
2023-01-17T02:00:47.969Z,93.29
2023-01-17T02:05:55.006Z,93.41
2023-01-17T02:11:03.770Z,93.41
2023-01-17T02:16:24.358Z,93.38
2023-01-17T02:21:34.082Z,93.26
2023-01-17T02:27:06.039Z,93.35
2023-01-17T02:32:22.675Z,93.46
2023-01-17T02:37:38.570Z,93.65
2023-01-17T02:42:51.766Z,93.46
2023-01-17T02:47:59.738Z,93.44
2023-01-17T02:53:27.804Z,93.79
2023-01-17T02:58:54.170Z,93.84
2023-01-17T03:04:08.149Z,93.46
2023-01-17T03:09:17.085Z,93.65
2023-01-17T03:14:23.645Z,93.78
2023-01-17T03:19:31.851Z,93.74
2023-01-17T03:24:38.302Z,93.65
2023-01-17T03:29:44.538Z,93.57
2023-01-17T03:34:52.280Z,93.58
2023-01-17T03:39:58.793Z,93.66
2023-01-17T03:45:07.952Z,93.61
2023-01-17T03:50:18.992Z,93.56
2023-01-17T03:55:27.317Z,93.58
2023-01-17T04:00:37.454Z,93.54
2023-01-17T04:05:45.325Z,93.69
2023-01-17T04:10:51.569Z,93.59
2023-01-17T04:15:58.724Z,93.50
2023-01-17T04:21:08.026Z,93.71
2023-01-17T04:26:15.215Z,93.64
2023-01-17T04:31:21.696Z,93.74
2023-01-17T04:36:29.537Z,93.70
2023-01-17T04:41:36.321Z,93.64
2023-01-17T04:46:42.875Z,93.61
2023-01-17T04:51:50.641Z,93.48
2023-01-17T04:56:56.986Z,93.61
2023-01-17T05:02:03.487Z,93.51
2023-01-17T05:07:11.579Z,93.39
2023-01-17T05:12:21.447Z,93.39
2023-01-17T05:17:28.390Z,92.88
2023-01-17T05:22:36.176Z,92.90
2023-01-17T05:27:42.423Z,92.55
2023-01-17T05:32:51.711Z,92.36
2023-01-17T05:37:59.828Z,91.93
2023-01-17T05:43:06.376Z,91.61
2023-01-17T05:48:12.858Z,91.72
2023-01-17T05:53:21.545Z,91.60
2023-01-17T05:58:28.057Z,91.44
2023-01-17T06:03:34.718Z,91.75
2023-01-17T06:08:42.701Z,91.08
2023-01-17T06:13:51.007Z,91.02
2023-01-17T06:18:57.572Z,90.77
2023-01-17T06:24:06.513Z,90.61
2023-01-17T06:29:13.549Z,90.20
2023-01-17T06:34:20.193Z,90.58
2023-01-17T06:39:28.512Z,90.39
2023-01-17T06:44:35.409Z,90.62
2023-01-17T06:49:44.557Z,90.64
2023-01-17T06:54:52.165Z,90.59
2023-01-17T06:59:58.416Z,90.59
2023-01-17T07:05:04.882Z,90.76
2023-01-17T07:10:15.224Z,90.97
2023-01-17T07:15:21.566Z,90.94
2023-01-17T07:20:28.113Z,90.88
2023-01-17T07:25:37.154Z,90.87
2023-01-17T07:30:43.552Z,90.75
2023-01-17T07:35:49.986Z,90.96
2023-01-17T07:41:01.229Z,91.24
2023-01-17T07:46:08.886Z,91.46
2023-01-17T07:51:15.188Z,91.71
2023-01-17T07:56:23.524Z,91.86
2023-01-17T08:01:30.220Z,92.29
2023-01-17T08:06:36.900Z,92.39
2023-01-17T08:11:44.766Z,92.47
2023-01-17T08:16:51.230Z,92.67
2023-01-17T08:21:57.852Z,92.70
2023-01-17T08:27:05.885Z,92.84
2023-01-17T08:32:12.226Z,93.00
2023-01-17T08:37:18.612Z,93.05
2023-01-17T08:42:26.750Z,92.88
2023-01-17T08:47:33.683Z,93.43
2023-01-17T08:52:40.244Z,93.16
2023-01-17T08:57:48.364Z,93.00
2023-01-17T09:02:54.957Z,93.21
2023-01-17T09:08:01.292Z,92.96
2023-01-17T09:13:09.762Z,93.27
2023-01-17T09:18:16.078Z,93.03
2023-01-17T09:23:22.752Z,92.89
2023-01-17T09:28:30.684Z,92.84
2023-01-17T09:33:37.262Z,92.87
2023-01-17T09:38:43.851Z,93.06
2023-01-17T09:43:56.135Z,92.95
2023-01-17T09:49:09.460Z,93.02
2023-01-17T09:54:24.334Z,92.88
2023-01-17T09:59:45.628Z,92.73
2023-01-17T10:05:20.501Z,92.83
2023-01-17T10:10:39.406Z,92.81
2023-01-17T10:16:04.781Z,92.57
2023-01-17T10:21:21.370Z,92.50
2023-01-17T10:26:29.009Z,92.51
2023-01-17T10:31:45.184Z,92.65
2023-01-17T10:37:00.825Z,92.92
2023-01-17T10:42:18.770Z,92.78
2023-01-17T10:47:30.879Z,92.67
2023-01-17T10:52:47.475Z,92.39
2023-01-17T10:57:54.869Z,92.32
2023-01-17T11:03:03.979Z,92.01
2023-01-17T11:08:11.250Z,91.98
2023-01-17T11:13:30.184Z,92.14
2023-01-17T11:18:40.798Z,91.82
2023-01-17T11:23:49.506Z,92.19
2023-01-17T11:29:14.524Z,92.02
2023-01-17T11:34:27.517Z,92.14
2023-01-17T11:39:33.850Z,92.01
2023-01-17T11:44:40.678Z,92.01
2023-01-17T11:49:50.945Z,91.85
2023-01-17T11:54:58.063Z,91.79
2023-01-17T12:00:17.332Z,91.70
2023-01-17T12:05:54.159Z,91.70
2023-01-17T12:11:11.648Z,91.83
2023-01-17T12:16:31.814Z,91.67
2023-01-17T12:21:53.187Z,91.38
2023-01-17T12:27:10.102Z,91.75
2023-01-17T12:32:43.532Z,91.61
2023-01-17T12:38:04.924Z,91.60
2023-01-17T12:43:21.941Z,91.56
2023-01-17T12:48:35.618Z,91.35
2023-01-17T12:53:52.510Z,91.28
2023-01-17T12:59:13.842Z,90.69
2023-01-17T13:04:29.039Z,90.56
2023-01-17T13:09:46.324Z,90.62
2023-01-17T13:14:52.724Z,90.33
2023-01-17T13:20:05.027Z,89.95
2023-01-17T13:25:32.335Z,90.01
2023-01-17T13:31:03.232Z,89.22
2023-01-17T13:36:35.684Z,88.58
2023-01-17T13:42:05.039Z,88.70
2023-01-17T13:47:50.486Z,88.55
2023-01-17T13:52:58.361Z,88.76
2023-01-17T13:58:06.249Z,88.71
2023-01-17T14:03:13.594Z,88.79
2023-01-17T14:08:22.650Z,89.02
2023-01-17T14:13:35.835Z,89.24
2023-01-17T14:18:44.544Z,89.07
2023-01-17T14:24:07.845Z,88.76
2023-01-17T14:29:59.249Z,88.56
2023-01-17T14:35:09.546Z,88.44
2023-01-17T14:40:22.792Z,88.62
2023-01-17T14:45:33.535Z,88.73
2023-01-17T14:50:41.707Z,88.45
2023-01-17T14:56:01.052Z,88.30
2023-01-17T15:01:14.169Z,88.08
2023-01-17T15:06:24.139Z,87.84
2023-01-17T15:11:35.834Z,87.61
2023-01-17T15:16:43.956Z,87.74
2023-01-17T15:21:53.325Z,87.80
2023-01-17T15:27:00.859Z,87.27
2023-01-17T15:32:17.282Z,87.90
2023-01-17T15:37:30.927Z,87.46
2023-01-17T15:42:40.972Z,87.88
2023-01-17T15:47:49.668Z,87.66
2023-01-17T15:52:58.862Z,87.63
2023-01-17T15:58:07.334Z,88.02
2023-01-17T16:03:26.180Z,88.44
2023-01-17T16:08:40.314Z,88.56
2023-01-17T16:13:47.824Z,88.70
2023-01-17T16:19:02.549Z,89.09
2023-01-17T16:24:13.699Z,89.51
2023-01-17T16:29:20.687Z,89.73
2023-01-17T16:34:34.000Z,90.17
2023-01-17T16:39:41.816Z,90.06
2023-01-17T16:44:48.550Z,90.45
2023-01-17T16:49:56.577Z,90.43
2023-01-17T16:55:03.342Z,90.44
2023-01-17T17:00:13.991Z,90.82
2023-01-17T17:05:22.452Z,90.94
2023-01-17T17:10:30.860Z,91.11
2023-01-17T17:15:42.795Z,90.78
2023-01-17T17:20:51.640Z,90.66
2023-01-17T17:25:58.672Z,90.05
2023-01-17T17:31:10.743Z,90.11
2023-01-17T17:36:20.257Z,89.91
2023-01-17T17:41:30.015Z,89.47
2023-01-17T17:46:39.139Z,89.31
2023-01-17T17:51:48.777Z,89.19
2023-01-17T17:56:59.994Z,89.06
2023-01-17T18:02:11.131Z,88.89
2023-01-17T18:07:21.209Z,88.87
2023-01-17T18:12:31.455Z,89.27
2023-01-17T18:17:41.873Z,89.25
2023-01-17T18:22:54.250Z,89.14
2023-01-17T18:28:04.581Z,89.35
2023-01-17T18:33:13.683Z,89.17
2023-01-17T18:38:29.475Z,88.65
2023-01-17T18:43:40.267Z,88.67
2023-01-17T18:48:48.861Z,88.63
2023-01-17T18:54:00.128Z,88.71
2023-01-17T18:59:10.431Z,88.68
2023-01-17T19:04:19.953Z,88.53
2023-01-17T19:09:32.858Z,88.62
2023-01-17T19:14:42.643Z,88.41
2023-01-17T19:19:56.987Z,89.04
2023-01-17T19:25:23.750Z,89.68
2023-01-17T19:30:33.526Z,90.01
2023-01-17T19:35:42.457Z,90.27
2023-01-17T19:40:53.465Z,90.42
2023-01-17T19:46:05.047Z,90.11
2023-01-17T19:51:16.582Z,90.05
2023-01-17T19:56:29.957Z,90.11
2023-01-17T20:01:40.130Z,89.64
2023-01-17T20:06:49.755Z,89.49
2023-01-17T20:11:59.539Z,89.44
2023-01-17T20:17:08.816Z,89.57
2023-01-17T20:22:17.346Z,89.07
2023-01-17T20:27:32.718Z,89.49
2023-01-17T20:32:41.689Z,88.87
2023-01-17T20:37:49.963Z,89.12
2023-01-17T20:43:10.322Z,88.31
2023-01-17T20:48:18.696Z,88.08
2023-01-17T20:53:25.778Z,88.32
2023-01-17T20:58:34.942Z,88.22
2023-01-17T21:03:42.905Z,88.10
2023-01-17T21:08:51.881Z,88.68
2023-01-17T21:14:01.149Z,89.32
2023-01-17T21:19:12.253Z,88.95
2023-01-17T21:24:20.448Z,86.43
2023-01-17T21:29:29.518Z,88.06
2023-01-17T21:34:36.434Z,87.37
2023-01-17T21:39:43.856Z,88.73
2023-01-17T21:44:53.483Z,88.76
2023-01-17T21:49:59.819Z,88.49
2023-01-17T21:55:24.457Z,88.50
2023-01-17T22:00:32.584Z,88.52
2023-01-17T22:05:39.324Z,87.35
2023-01-17T22:10:48.792Z,86.63
2023-01-17T22:16:02.990Z,86.99
2023-01-17T22:21:13.504Z,87.67
2023-01-17T22:26:21.139Z,86.94
2023-01-17T22:31:30.105Z,87.32
2023-01-17T22:36:36.702Z,86.21
2023-01-17T22:41:43.206Z,88.03
2023-01-17T22:46:51.271Z,89.82
2023-01-17T22:51:57.946Z,90.30
2023-01-17T22:57:04.495Z,89.29
2023-01-17T23:02:12.330Z,88.96
2023-01-17T23:07:18.782Z,90.00
2023-01-17T23:12:24.993Z,90.10
2023-01-17T23:17:50.396Z,89.94
2023-01-17T23:22:57.038Z,90.49
2023-01-17T23:28:21.018Z,90.76
2023-01-17T23:33:28.803Z,90.93
2023-01-17T23:38:40.971Z,91.05
2023-01-17T23:43:51.768Z,90.76
2023-01-17T23:48:59.732Z,90.50
2023-01-17T23:54:06.755Z,90.38
2023-01-17T23:59:13.468Z,90.83
